Time;durP1;ratioP1;P1;durP2;ratioP2;P2;SDS_P1;SDS_P2;PMS_P1;PMS_P2;Temp;Humidity;BMP_temperature;BMP_pressure;BME280_temperature;BME280_humidity;BME280_pressure;Samples;Min_cycle;Max_cycle;Signal;HPM_P1;HPM_P2
2021/06/04 00:00:41;;;;;;;10.77;8.57;;;;;;;;;;10162344;28;20077;-72
2021/06/04 00:05:42;;;;;;;12.50;10.38;;;;;;;;;;10171663;28;20042;-74
2021/06/04 00:10:40;;;;;;;11.50;9.30;;;;;;;;;;10156702;28;20057;-76
2021/06/04 00:15:37;;;;;;;14.60;11.60;;;;;;;;;;10152291;28;20104;-74
2021/06/04 00:20:33;;;;;;;13.82;9.80;;;;;;;;;;10156726;28;20046;-76
2021/06/04 00:25:30;;;;;;;11.95;10.48;;;;;;;;;;10157395;28;20591;-74
2021/06/04 00:30:26;;;;;;;11.63;10.35;;;;;;;;;;10144857;28;20061;-74
2021/06/04 00:35:24;;;;;;;12.38;11.05;;;;;;;;;;10140241;28;20038;-72
2021/06/04 00:40:23;;;;;;;12.45;10.75;;;;;;;;;;10144534;28;20038;-75
2021/06/04 00:45:22;;;;;;;11.45;10.25;;;;;;;;;;10160690;28;20132;-72
2021/06/04 00:50:22;;;;;;;12.02;10.82;;;;;;;;;;10128155;28;20077;-74
2021/06/04 00:55:19;;;;;;;11.43;10.23;;;;;;;;;;10144746;28;20153;-74
2021/06/04 01:00:23;;;;;;;14.60;10.80;;;;;;;;;;10150809;28;20121;-74
2021/06/04 01:05:20;;;;;;;12.90;11.40;;;;;;;;;;10150861;28;20097;-73
2021/06/04 01:10:24;;;;;;;13.98;12.48;;;;;;;;;;10161323;28;21524;-75
2021/06/04 01:15:39;;;;;;;13.10;11.82;;;;;;;;;;10157134;28;20550;-74
2021/06/04 01:20:47;;;;;;;13.15;11.45;;;;;;;;;;10169263;28;20054;-75
2021/06/04 01:25:58;;;;;;;11.75;10.55;;;;;;;;;;10134582;28;20042;-74
2021/06/04 01:31:06;;;;;;;19.67;12.88;;;;;;;;;;10147915;28;20571;-74
2021/06/04 01:36:04;;;;;;;14.65;12.48;;;;;;;;;;10148712;28;20096;-75
2021/06/04 01:41:03;;;;;;;14.48;12.95;;;;;;;;;;10143090;28;20478;-74
2021/06/04 01:46:02;;;;;;;14.23;12.73;;;;;;;;;;10138657;28;20766;-75
2021/06/04 01:51:04;;;;;;;15.93;14.35;;;;;;;;;;10152858;28;20078;-76
2021/06/04 01:56:17;;;;;;;14.60;12.90;;;;;;;;;;10150662;28;20156;-76
2021/06/04 02:01:19;;;;;;;13.63;12.23;;;;;;;;;;10152568;28;20153;-75
2021/06/04 02:06:16;;;;;;;15.05;13.45;;;;;;;;;;10144106;28;20042;-76
2021/06/04 02:11:15;;;;;;;17.50;13.93;;;;;;;;;;10153585;28;20053;-76
2021/06/04 02:16:21;;;;;;;15.32;13.02;;;;;;;;;;10164863;28;20043;-74
2021/06/04 02:21:20;;;;;;;12.38;11.07;;;;;;;;;;10152838;28;20052;-74
2021/06/04 02:26:20;;;;;;;15.50;12.45;;;;;;;;;;10165569;28;20074;-72
2021/06/04 02:31:28;;;;;;;14.07;12.68;;;;;;;;;;10157348;28;20133;-72
2021/06/04 02:36:26;;;;;;;14.80;12.73;;;;;;;;;;10157031;28;20655;-72
2021/06/04 02:41:33;;;;;;;13.50;11.77;;;;;;;;;;10158002;28;20463;-71
2021/06/04 02:46:33;;;;;;;14.13;12.70;;;;;;;;;;10142879;28;20050;-73
2021/06/04 02:51:32;;;;;;;15.88;13.85;;;;;;;;;;10156220;28;20065;-70
2021/06/04 02:56:31;;;;;;;13.70;12.23;;;;;;;;;;10162352;28;20564;-74
2021/06/04 03:01:30;;;;;;;15.52;13.93;;;;;;;;;;10143983;28;20066;-73
2021/06/04 03:06:30;;;;;;;13.75;12.20;;;;;;;;;;10145070;28;20069;-73
2021/06/04 03:11:29;;;;;;;14.27;11.77;;;;;;;;;;10155704;28;20045;-74
2021/06/04 03:16:26;;;;;;;13.63;12.23;;;;;;;;;;10166535;28;20046;-74
2021/06/04 03:21:25;;;;;;;14.68;13.27;;;;;;;;;;10160819;28;20447;-71
2021/06/04 03:26:24;;;;;;;14.30;12.80;;;;;;;;;;10152866;28;20061;-73
2021/06/04 03:31:21;;;;;;;13.13;11.82;;;;;;;;;;10172081;28;20081;-72
2021/06/04 03:36:20;;;;;;;14.18;12.70;;;;;;;;;;10164905;28;20527;-73
2021/06/04 03:41:18;;;;;;;16.05;13.02;;;;;;;;;;10155324;28;20096;-72
2021/06/04 03:46:15;;;;;;;14.38;12.85;;;;;;;;;;10148360;28;20137;-73
2021/06/04 03:51:14;;;;;;;13.50;12.20;;;;;;;;;;10162686;28;20508;-71
2021/06/04 03:56:11;;;;;;;13.02;11.45;;;;;;;;;;10146401;28;20149;-72
2021/06/04 04:01:11;;;;;;;13.70;12.38;;;;;;;;;;10149419;28;20106;-72
2021/06/04 04:06:08;;;;;;;13.38;11.93;;;;;;;;;;10147869;28;20137;-73
2021/06/04 04:11:04;;;;;;;11.05;9.95;;;;;;;;;;10153601;28;20092;-73
2021/06/04 04:16:01;;;;;;;13.10;10.73;;;;;;;;;;10156771;28;20100;-70
2021/06/04 04:21:00;;;;;;;12.27;9.85;;;;;;;;;;10149961;28;20058;-70
2021/06/04 04:25:57;;;;;;;11.35;9.35;;;;;;;;;;10151832;28;20100;-72
2021/06/04 04:30:53;;;;;;;10.82;9.63;;;;;;;;;;10159944;28;20466;-75
2021/06/04 04:35:50;;;;;;;10.23;9.18;;;;;;;;;;10143825;28;20054;-72
2021/06/04 04:40:49;;;;;;;13.27;8.77;;;;;;;;;;10130390;28;20134;-69
2021/06/04 04:45:45;;;;;;;9.90;8.88;;;;;;;;;;10135265;28;20472;-72
2021/06/04 04:50:41;;;;;;;13.07;9.07;;;;;;;;;;10142715;28;20069;-71
2021/06/04 04:55:39;;;;;;;16.30;9.35;;;;;;;;;;10126620;28;20054;-71
2021/06/04 05:00:37;;;;;;;9.52;8.02;;;;;;;;;;10133225;28;20070;-74
2021/06/04 05:05:35;;;;;;;10.73;7.95;;;;;;;;;;10152078;28;20097;-74
2021/06/04 05:10:32;;;;;;;9.27;7.63;;;;;;;;;;10139985;28;20050;-74
2021/06/04 05:15:32;;;;;;;9.65;7.82;;;;;;;;;;10139967;28;20087;-74
2021/06/04 05:20:28;;;;;;;11.10;8.35;;;;;;;;;;10137984;28;20108;-75
2021/06/04 05:25:28;;;;;;;9.30;7.57;;;;;;;;;;10134576;28;20108;-75
2021/06/04 05:30:27;;;;;;;12.40;7.93;;;;;;;;;;10140249;28;20046;-73
2021/06/04 05:35:24;;;;;;;10.85;7.63;;;;;;;;;;10143774;28;20078;-73
2021/06/04 05:40:26;;;;;;;9.27;8.00;;;;;;;;;;10135617;28;20239;-74
2021/06/04 05:45:23;;;;;;;12.13;7.80;;;;;;;;;;10146740;28;20123;-73
2021/06/04 05:50:22;;;;;;;10.57;7.03;;;;;;;;;;10128848;28;20810;-74
2021/06/04 05:55:21;;;;;;;9.20;6.25;;;;;;;;;;10141261;28;20574;-74
2021/06/04 06:00:21;;;;;;;10.50;7.00;;;;;;;;;;10145368;28;20042;-73
2021/06/04 06:05:18;;;;;;;11.18;7.65;;;;;;;;;;10136672;28;20182;-71
2021/06/04 06:10:15;;;;;;;9.63;6.55;;;;;;;;;;10162241;28;20511;-70
2021/06/04 06:15:11;;;;;;;9.57;6.55;;;;;;;;;;10143980;28;20046;-70
2021/06/04 06:20:09;;;;;;;9.32;6.10;;;;;;;;;;10146173;28;20078;-70
2021/06/04 06:25:07;;;;;;;9.30;6.38;;;;;;;;;;10149894;28;20050;-70
2021/06/04 06:30:07;;;;;;;8.57;6.32;;;;;;;;;;10142510;28;20791;-71
2021/06/04 06:35:03;;;;;;;7.95;6.28;;;;;;;;;;10144289;28;20157;-70
2021/06/04 06:40:00;;;;;;;8.55;7.15;;;;;;;;;;10141063;28;20146;-73
2021/06/04 06:44:56;;;;;;;9.43;6.70;;;;;;;;;;10135185;28;20567;-69
2021/06/04 06:49:52;;;;;;;7.97;6.07;;;;;;;;;;10143946;28;20081;-71
2021/06/04 06:54:49;;;;;;;9.40;6.35;;;;;;;;;;10140851;28;20133;-69
2021/06/04 06:59:45;;;;;;;8.95;6.57;;;;;;;;;;10152024;28;20050;-69
2021/06/04 07:04:41;;;;;;;10.43;7.00;;;;;;;;;;10142794;28;20137;-70
2021/06/04 07:09:38;;;;;;;7.40;6.30;;;;;;;;;;10134477;28;20129;-70
2021/06/04 07:14:34;;;;;;;12.52;6.60;;;;;;;;;;10131424;28;20505;-70
2021/06/04 07:19:33;;;;;;;10.57;7.30;;;;;;;;;;10141789;28;20042;-71
2021/06/04 07:24:30;;;;;;;8.88;6.38;;;;;;;;;;10135238;28;20425;-70
2021/06/04 07:29:28;;;;;;;9.05;6.53;;;;;;;;;;10138262;28;20085;-71
2021/06/04 07:34:25;;;;;;;12.75;6.28;;;;;;;;;;10149742;28;20096;-71
2021/06/04 07:39:27;;;;;;;6.32;5.50;;;;;;;;;;10132873;28;20074;-69
2021/06/04 07:44:23;;;;;;;11.02;6.80;;;;;;;;;;10134065;28;20156;-71
2021/06/04 07:49:20;;;;;;;9.90;6.43;;;;;;;;;;10138051;28;20137;-71
2021/06/04 07:54:19;;;;;;;8.23;5.10;;;;;;;;;;10135921;28;20412;-71
2021/06/04 07:59:15;;;;;;;11.07;6.40;;;;;;;;;;10131905;28;20217;-69
2021/06/04 08:04:12;;;;;;;9.07;6.50;;;;;;;;;;10125025;28;20050;-71
2021/06/04 08:09:10;;;;;;;9.85;5.75;;;;;;;;;;10125850;28;20476;-69
2021/06/04 08:14:10;;;;;;;8.35;6.30;;;;;;;;;;10136983;28;20051;-71
2021/06/04 08:19:07;;;;;;;9.90;6.63;;;;;;;;;;10136802;28;20133;-71
2021/06/04 08:24:04;;;;;;;10.35;6.13;;;;;;;;;;10122044;28;20117;-71
2021/06/04 08:29:02;;;;;;;10.70;6.45;;;;;;;;;;10143190;28;22114;-69
2021/06/04 08:33:59;;;;;;;10.38;6.07;;;;;;;;;;10147638;28;20081;-70
2021/06/04 08:38:58;;;;;;;7.97;5.90;;;;;;;;;;10139533;28;20416;-72
2021/06/04 08:43:54;;;;;;;7.05;5.38;;;;;;;;;;10156621;28;20137;-71
2021/06/04 08:49:07;;;;;;;10.00;6.05;;;;;;;;;;10158187;28;20089;-70
2021/06/04 08:54:09;;;;;;;12.90;6.70;;;;;;;;;;10147939;28;20150;-71
2021/06/04 08:59:12;;;;;;;9.90;7.13;;;;;;;;;;10133895;28;20050;-71
2021/06/04 09:04:14;;;;;;;8.07;5.75;;;;;;;;;;10154416;28;20046;-70
2021/06/04 09:09:23;;;;;;;10.20;5.72;;;;;;;;;;10152693;28;20053;-70
2021/06/04 09:14:20;;;;;;;7.18;5.30;;;;;;;;;;10137339;28;20046;-71
2021/06/04 09:19:25;;;;;;;8.48;5.15;;;;;;;;;;10144030;28;20042;-71
2021/06/04 09:24:26;;;;;;;6.95;5.45;;;;;;;;;;10168710;28;20070;-68
2021/06/04 09:29:24;;;;;;;8.00;4.72;;;;;;;;;;10147653;28;20082;-71
2021/06/04 09:34:27;;;;;;;7.85;5.57;;;;;;;;;;10144214;28;20168;-70
2021/06/04 09:39:23;;;;;;;;;;;;;;;;;;10151326;28;20065;-70
2021/06/04 09:44:19;;;;;;;6.97;4.90;;;;;;;;;;10134397;28;20478;-71
2021/06/04 09:49:26;;;;;;;6.82;5.25;;;;;;;;;;10131851;28;20700;-71
2021/06/04 09:54:29;;;;;;;7.60;5.35;;;;;;;;;;10123451;28;20054;-69
2021/06/04 09:59:26;;;;;;;6.75;5.10;;;;;;;;;;10131273;28;20038;-71
2021/06/04 10:04:31;;;;;;;8.07;5.20;;;;;;;;;;10134273;28;21034;-71
2021/06/04 10:09:29;;;;;;;10.65;4.55;;;;;;;;;;10130946;28;20409;-69
2021/06/04 10:14:44;;;;;;;5.43;4.25;;;;;;;;;;10148918;28;20045;-70
2021/06/04 10:19:44;;;;;;;10.75;4.65;;;;;;;;;;10147625;28;20043;-71
2021/06/04 10:24:48;;;;;;;5.95;3.85;;;;;;;;;;10144453;28;20066;-71
2021/06/04 10:30:04;;;;;;;9.07;4.15;;;;;;;;;;10141445;28;20097;-71
2021/06/04 10:35:27;;;;;;;8.40;5.10;;;;;;;;;;10142727;28;20063;-70
2021/06/04 10:40:46;;;;;;;8.38;4.00;;;;;;;;;;10141624;28;20657;-70
2021/06/04 10:45:47;;;;;;;11.48;4.45;;;;;;;;;;10151715;28;20108;-69
2021/06/04 10:50:52;;;;;;;5.63;3.40;;;;;;;;;;10146248;28;20050;-69
2021/06/04 10:56:06;;;;;;;5.40;3.22;;;;;;;;;;10133083;28;20485;-67
2021/06/04 11:01:05;;;;;;;5.28;2.88;;;;;;;;;;10129262;28;20124;-69
2021/06/04 11:06:23;;;;;;;5.05;2.55;;;;;;;;;;10146711;28;20553;-69
2021/06/04 11:11:25;;;;;;;6.95;3.28;;;;;;;;;;10131157;28;20157;-69
2021/06/04 11:16:27;;;;;;;6.57;2.95;;;;;;;;;;10126815;28;20133;-67
2021/06/04 11:21:31;;;;;;;4.75;3.28;;;;;;;;;;10151594;28;20132;-69
2021/06/04 11:26:47;;;;;;;5.72;3.10;;;;;;;;;;10155855;28;20045;-69
2021/06/04 11:32:06;;;;;;;5.13;2.90;;;;;;;;;;10160260;28;20045;-69
2021/06/04 11:37:04;;;;;;;4.63;2.85;;;;;;;;;;10154725;28;20101;-69
2021/06/04 11:42:04;;;;;;;6.30;2.60;;;;;;;;;;10137356;28;20079;-69
2021/06/04 11:47:27;;;;;;;6.88;2.65;;;;;;;;;;10150497;28;20078;-67
2021/06/04 11:52:39;;;;;;;7.03;2.78;;;;;;;;;;10157030;28;20140;-69
2021/06/04 11:57:48;;;;;;;5.75;2.80;;;;;;;;;;10156921;28;20500;-69
2021/06/04 12:02:46;;;;;;;5.78;2.70;;;;;;;;;;10138698;28;20077;-69
2021/06/04 12:08:01;;;;;;;5.68;2.60;;;;;;;;;;10147585;28;20138;-68
2021/06/04 12:12:58;;;;;;;6.07;2.78;;;;;;;;;;10156595;28;20081;-69
2021/06/04 12:18:16;;;;;;;6.68;3.25;;;;;;;;;;10123657;28;20081;-69
2021/06/04 12:23:32;;;;;;;6.65;3.10;;;;;;;;;;10124066;28;20145;-70
2021/06/04 12:28:31;;;;;;;4.35;2.55;;;;;;;;;;10126834;28;20051;-70
2021/06/04 12:33:30;;;;;;;4.30;2.42;;;;;;;;;;10132645;28;20038;-69
2021/06/04 12:38:33;;;;;;;6.82;3.40;;;;;;;;;;10133234;28;20665;-68
2021/06/04 12:43:31;;;;;;;4.22;2.70;;;;;;;;;;10126358;28;20669;-70
2021/06/04 12:48:34;;;;;;;5.82;2.40;;;;;;;;;;10152564;28;20073;-69
2021/06/04 12:53:44;;;;;;;5.25;2.88;;;;;;;;;;10129459;28;20626;-68
2021/06/04 12:58:42;;;;;;;6.35;3.17;;;;;;;;;;10129479;28;20129;-69
2021/06/04 13:03:53;;;;;;;9.10;4.32;;;;;;;;;;10129383;28;20066;-69
2021/06/04 13:08:49;;;;;;;7.05;3.85;;;;;;;;;;10129701;28;20561;-69
2021/06/04 13:13:49;;;;;;;6.85;4.40;;;;;;;;;;10136504;28;20097;-69
2021/06/04 13:18:46;;;;;;;6.65;4.10;;;;;;;;;;10146641;28;20096;-69
2021/06/04 13:23:55;;;;;;;5.93;3.97;;;;;;;;;;10148138;28;20043;-69
2021/06/04 13:28:56;;;;;;;6.80;3.75;;;;;;;;;;10137232;28;20070;-68
2021/06/04 13:33:56;;;;;;;5.93;3.45;;;;;;;;;;10154983;28;20080;-70
2021/06/04 13:38:55;;;;;;;6.68;3.72;;;;;;;;;;10140102;28;20460;-70
2021/06/04 13:43:54;;;;;;;10.70;4.20;;;;;;;;;;10134553;28;20061;-71
2021/06/04 13:49:05;;;;;;;5.25;3.38;;;;;;;;;;10132538;28;20046;-70
2021/06/04 13:54:02;;;;;;;6.45;3.83;;;;;;;;;;10123772;28;20070;-69
2021/06/04 13:59:17;;;;;;;6.18;3.78;;;;;;;;;;10125660;28;20074;-69
2021/06/04 14:04:31;;;;;;;6.55;4.35;;;;;;;;;;10123020;28;20070;-68
2021/06/04 14:09:35;;;;;;;5.10;3.70;;;;;;;;;;10134695;28;20047;-70
2021/06/04 14:14:33;;;;;;;6.35;4.00;;;;;;;;;;10148456;28;20055;-70
2021/06/04 14:19:36;;;;;;;6.90;3.83;;;;;;;;;;10170458;28;20040;-70
2021/06/04 14:24:37;;;;;;;8.63;4.28;;;;;;;;;;10135859;28;20579;-68
2021/06/04 14:29:36;;;;;;;10.70;4.93;;;;;;;;;;10138042;28;21238;-70
2021/06/04 14:34:35;;;;;;;6.80;4.40;;;;;;;;;;10136137;28;20085;-69
2021/06/04 14:39:34;;;;;;;5.97;4.25;;;;;;;;;;10119406;28;20511;-70
2021/06/04 14:44:31;;;;;;;6.85;4.40;;;;;;;;;;10137715;28;20505;-68
2021/06/04 14:49:27;;;;;;;7.30;4.75;;;;;;;;;;10132611;28;20046;-69
2021/06/04 14:54:23;;;;;;;7.68;4.40;;;;;;;;;;10135277;28;20082;-70
2021/06/04 14:59:20;;;;;;;8.43;4.75;;;;;;;;;;10131439;28;20131;-70
2021/06/04 15:04:16;;;;;;;6.78;4.32;;;;;;;;;;10138516;28;20122;-69
2021/06/04 15:09:12;;;;;;;7.88;4.05;;;;;;;;;;10133896;28;20046;-70
2021/06/04 15:14:09;;;;;;;6.57;4.25;;;;;;;;;;10136251;28;20078;-69
2021/06/04 15:19:05;;;;;;;7.72;4.15;;;;;;;;;;10131944;28;20717;-70
2021/06/04 15:24:02;;;;;;;6.90;4.15;;;;;;;;;;10156670;28;20049;-66
2021/06/04 15:28:59;;;;;;;8.02;4.18;;;;;;;;;;10147661;28;20077;-70
2021/06/04 15:33:58;;;;;;;6.07;4.57;;;;;;;;;;10137556;28;20133;-66
2021/06/04 15:38:55;;;;;;;6.20;4.03;;;;;;;;;;10137673;28;20137;-69
2021/06/04 15:43:51;;;;;;;7.80;4.45;;;;;;;;;;10138433;28;20085;-68
2021/06/04 15:48:48;;;;;;;4.80;3.78;;;;;;;;;;10141841;28;20077;-68
2021/06/04 15:53:45;;;;;;;8.75;4.00;;;;;;;;;;10133467;28;20149;-69
2021/06/04 15:58:42;;;;;;;6.75;3.95;;;;;;;;;;10128641;28;20078;-69
2021/06/04 16:03:38;;;;;;;5.95;3.55;;;;;;;;;;10141063;28;20077;-68
2021/06/04 16:08:35;;;;;;;5.57;4.18;;;;;;;;;;10160175;28;20486;-69
2021/06/04 16:13:31;;;;;;;5.75;3.97;;;;;;;;;;10137088;28;20174;-68
2021/06/04 16:18:28;;;;;;;5.72;4.10;;;;;;;;;;10139493;28;20050;-68
2021/06/04 16:23:25;;;;;;;7.43;3.58;;;;;;;;;;10130225;28;20043;-68
2021/06/04 16:28:22;;;;;;;6.50;4.10;;;;;;;;;;10128702;28;20059;-69
2021/06/04 16:33:19;;;;;;;6.20;3.90;;;;;;;;;;10123720;28;20131;-69
2021/06/04 16:38:15;;;;;;;7.35;4.40;;;;;;;;;;10121371;28;20145;-70
2021/06/04 16:43:12;;;;;;;7.05;3.70;;;;;;;;;;10130353;28;20619;-70
2021/06/04 16:48:09;;;;;;;5.43;4.10;;;;;;;;;;10139389;28;20082;-69
2021/06/04 16:53:05;;;;;;;5.80;3.80;;;;;;;;;;10120292;28;20133;-67
2021/06/04 16:58:04;;;;;;;7.93;4.22;;;;;;;;;;10122006;28;20078;-70
2021/06/04 17:03:01;;;;;;;5.68;3.72;;;;;;;;;;10125621;28;20141;-68
2021/06/04 17:07:58;;;;;;;7.30;4.20;;;;;;;;;;10125418;28;20567;-68
2021/06/04 17:12:54;;;;;;;8.82;3.75;;;;;;;;;;10128867;28;20142;-68
2021/06/04 17:17:51;;;;;;;6.15;4.13;;;;;;;;;;10135537;28;20065;-69
2021/06/04 17:22:47;;;;;;;9.02;4.25;;;;;;;;;;10147512;28;20451;-66
2021/06/04 17:27:43;;;;;;;8.57;4.78;;;;;;;;;;10157599;28;20133;-69
2021/06/04 17:32:40;;;;;;;5.25;3.90;;;;;;;;;;10155058;28;20138;-68
2021/06/04 17:37:38;;;;;;;8.82;4.40;;;;;;;;;;10153613;28;20050;-69
2021/06/04 17:42:35;;;;;;;7.05;4.20;;;;;;;;;;10153609;28;20077;-68
2021/06/04 17:47:31;;;;;;;6.03;4.40;;;;;;;;;;10154581;28;20042;-67
2021/06/04 17:52:28;;;;;;;6.15;4.05;;;;;;;;;;10158306;28;20473;-69
2021/06/04 17:57:24;;;;;;;7.80;3.75;;;;;;;;;;10158192;28;20130;-69
2021/06/04 18:02:21;;;;;;;8.85;4.00;;;;;;;;;;10145099;28;20062;-67
2021/06/04 18:07:19;;;;;;;5.72;4.10;;;;;;;;;;10151796;28;20082;-68
2021/06/04 18:12:16;;;;;;;7.63;3.92;;;;;;;;;;10161246;28;20145;-68
2021/06/04 18:17:12;;;;;;;7.57;4.05;;;;;;;;;;10161677;28;20437;-68
2021/06/04 18:22:10;;;;;;;7.47;4.20;;;;;;;;;;10169376;28;20043;-68
2021/06/04 18:27:07;;;;;;;7.63;4.82;;;;;;;;;;10158123;28;20062;-67
2021/06/04 18:32:04;;;;;;;9.82;4.38;;;;;;;;;;10161958;28;20078;-68
2021/06/04 18:37:00;;;;;;;6.72;4.15;;;;;;;;;;10160544;28;20080;-69
2021/06/04 18:41:58;;;;;;;6.60;4.30;;;;;;;;;;10155028;28;20133;-68
2021/06/04 18:46:56;;;;;;;7.10;4.43;;;;;;;;;;10146378;28;20112;-69
2021/06/04 18:51:54;;;;;;;9.38;4.07;;;;;;;;;;10158816;28;20487;-69
2021/06/04 18:56:50;;;;;;;6.70;4.60;;;;;;;;;;10151598;28;20088;-68
2021/06/04 19:01:49;;;;;;;7.93;4.50;;;;;;;;;;10152407;28;20076;-68
2021/06/04 19:06:45;;;;;;;6.70;4.50;;;;;;;;;;10158254;28;20096;-67
2021/06/04 19:11:42;;;;;;;7.70;4.65;;;;;;;;;;10161498;28;20089;-67
2021/06/04 19:16:38;;;;;;;7.20;4.63;;;;;;;;;;10149693;28;20042;-68
2021/06/04 19:21:35;;;;;;;10.38;4.53;;;;;;;;;;10141789;28;20054;-67
2021/06/04 19:26:33;;;;;;;11.45;5.10;;;;;;;;;;10159137;28;20606;-68
2021/06/04 19:31:31;;;;;;;8.32;5.10;;;;;;;;;;10161027;28;20081;-67
2021/06/04 19:36:28;;;;;;;8.20;4.57;;;;;;;;;;10164763;28;20052;-68
2021/06/04 19:41:28;;;;;;;8.32;4.80;;;;;;;;;;10147458;28;20049;-69
2021/06/04 19:46:25;;;;;;;8.13;4.78;;;;;;;;;;10143959;28;20046;-68
2021/06/04 19:51:23;;;;;;;9.27;4.93;;;;;;;;;;10145039;28;20046;-68
2021/06/04 19:56:20;;;;;;;6.25;5.00;;;;;;;;;;10142873;28;20141;-67
2021/06/04 20:01:22;;;;;;;9.07;4.93;;;;;;;;;;10148209;28;20077;-67
2021/06/04 20:06:20;;;;;;;8.50;5.45;;;;;;;;;;10144936;28;22128;-69
2021/06/04 20:11:17;;;;;;;9.00;5.10;;;;;;;;;;10147349;28;20497;-69
2021/06/04 20:16:13;;;;;;;9.63;5.45;;;;;;;;;;10157530;28;20046;-68
2021/06/04 20:21:11;;;;;;;6.85;4.85;;;;;;;;;;10165785;28;20054;-68
2021/06/04 20:26:08;;;;;;;8.82;5.28;;;;;;;;;;10158355;28;20133;-67
2021/06/04 20:31:06;;;;;;;9.60;5.18;;;;;;;;;;10144055;28;20046;-68
2021/06/04 20:36:03;;;;;;;8.85;6.28;;;;;;;;;;10126546;28;20515;-66
2021/06/04 20:41:00;;;;;;;8.15;6.05;;;;;;;;;;10133275;28;20499;-67
2021/06/04 20:45:58;;;;;;;10.48;5.82;;;;;;;;;;10127401;28;20564;-69
2021/06/04 20:50:57;;;;;;;9.50;5.85;;;;;;;;;;10128631;28;20049;-72
2021/06/04 20:55:54;;;;;;;8.27;5.60;;;;;;;;;;10129163;28;20603;-72
2021/06/04 21:00:51;;;;;;;8.07;5.75;;;;;;;;;;10133791;28;20081;-74
2021/06/04 21:05:48;;;;;;;8.85;6.05;;;;;;;;;;10127051;28;20070;-73
2021/06/04 21:10:44;;;;;;;10.57;5.90;;;;;;;;;;10146177;28;20054;-74
2021/06/04 21:15:43;;;;;;;11.35;6.50;;;;;;;;;;10138112;28;20149;-74
2021/06/04 21:20:40;;;;;;;10.15;6.05;;;;;;;;;;10155051;28;20106;-71
2021/06/04 21:25:42;;;;;;;8.18;6.53;;;;;;;;;;10178820;28;20100;-71
2021/06/04 21:30:41;;;;;;;9.47;5.97;;;;;;;;;;10157884;28;20068;-74
2021/06/04 21:35:38;;;;;;;7.78;5.68;;;;;;;;;;10152351;28;20473;-73
2021/06/04 21:40:37;;;;;;;11.30;6.88;;;;;;;;;;10141725;28;20467;-69
2021/06/04 21:45:33;;;;;;;8.63;5.85;;;;;;;;;;10134214;28;20502;-73
2021/06/04 21:50:30;;;;;;;12.05;5.60;;;;;;;;;;10133053;28;20051;-73
2021/06/04 21:55:26;;;;;;;9.15;6.10;;;;;;;;;;10124462;28;20073;-72
2021/06/04 22:00:28;;;;;;;11.10;6.95;;;;;;;;;;10138650;28;20057;-73
2021/06/04 22:05:25;;;;;;;10.13;7.00;;;;;;;;;;10123865;28;20230;-73
2021/06/04 22:10:22;;;;;;;10.52;8.20;;;;;;;;;;10137636;28;20054;-72
2021/06/04 22:15:19;;;;;;;12.18;7.80;;;;;;;;;;10137060;28;20125;-73
2021/06/04 22:20:16;;;;;;;8.68;6.88;;;;;;;;;;10153527;28;20050;-73
2021/06/04 22:25:15;;;;;;;9.45;6.80;;;;;;;;;;10152253;28;20073;-73
2021/06/04 22:30:11;;;;;;;10.80;6.78;;;;;;;;;;10165517;28;20074;-73
2021/06/04 22:35:09;;;;;;;8.73;7.25;;;;;;;;;;10151384;28;20047;-72
2021/06/04 22:40:06;;;;;;;11.40;7.82;;;;;;;;;;10151483;28;20098;-72
2021/06/04 22:45:04;;;;;;;8.25;6.93;;;;;;;;;;10153693;28;20101;-71
2021/06/04 22:50:00;;;;;;;10.07;6.53;;;;;;;;;;10169309;28;21116;-72
2021/06/04 22:54:57;;;;;;;9.82;6.60;;;;;;;;;;10151993;28;20530;-71
2021/06/04 22:59:53;;;;;;;9.85;6.75;;;;;;;;;;10145290;28;20042;-73
2021/06/04 23:04:49;;;;;;;8.65;7.00;;;;;;;;;;10151218;28;20069;-73
2021/06/04 23:09:46;;;;;;;9.15;6.47;;;;;;;;;;10154462;28;20076;-73
2021/06/04 23:14:42;;;;;;;8.95;6.30;;;;;;;;;;10139441;28;20050;-72
2021/06/04 23:19:39;;;;;;;9.73;6.60;;;;;;;;;;10151700;28;20039;-72
2021/06/04 23:24:35;;;;;;;9.35;5.95;;;;;;;;;;10155660;28;20133;-73
2021/06/04 23:29:31;;;;;;;10.75;7.00;;;;;;;;;;10171683;28;20084;-71
2021/06/04 23:34:28;;;;;;;8.48;6.35;;;;;;;;;;10159767;28;20076;-74
2021/06/04 23:39:24;;;;;;;12.95;7.15;;;;;;;;;;10148579;28;20158;-72
2021/06/04 23:44:20;;;;;;;10.48;7.22;;;;;;;;;;10155620;28;20088;-71
2021/06/04 23:49:16;;;;;;;9.00;6.72;;;;;;;;;;10156034;28;20038;-69
2021/06/04 23:54:13;;;;;;;8.73;6.50;;;;;;;;;;10165254;28;20069;-71
2021/06/04 23:59:09;;;;;;;10.43;6.85;;;;;;;;;;10143243;28;20100;-70
